createdAt,value
2022-10-22T00:01:15.905Z,100.00
2022-10-22T00:06:17.567Z,100.00
2022-10-22T00:11:20.245Z,100.00
2022-10-22T00:16:21.964Z,100.00
2022-10-22T00:21:23.975Z,100.00
2022-10-22T00:26:25.654Z,100.00
2022-10-22T00:31:27.824Z,100.00
2022-10-22T00:36:29.497Z,100.00
2022-10-22T00:41:31.161Z,100.00
2022-10-22T00:46:33.022Z,100.00
2022-10-22T00:51:35.817Z,100.00
2022-10-22T00:56:38.207Z,100.00
2022-10-22T01:01:39.878Z,100.00
2022-10-22T01:06:41.571Z,100.00
2022-10-22T01:12:20.233Z,100.00
2022-10-22T01:17:32.093Z,100.00
2022-10-22T01:22:44.462Z,100.00
2022-10-22T01:28:01.686Z,100.00
2022-10-22T01:33:06.987Z,100.00
2022-10-22T01:38:13.739Z,100.00
2022-10-22T01:43:15.460Z,100.00
2022-10-22T01:48:54.788Z,100.00
2022-10-22T01:54:34.262Z,100.00
2022-10-22T01:59:47.386Z,100.00
2022-10-22T02:04:55.705Z,100.00
2022-10-22T02:09:59.770Z,100.00
2022-10-22T02:15:03.332Z,100.00
2022-10-22T02:20:35.836Z,100.00
2022-10-22T02:25:40.937Z,100.00
2022-10-22T02:30:46.682Z,100.00
2022-10-22T02:35:49.949Z,100.00
2022-10-22T02:40:52.005Z,100.00
2022-10-22T02:45:53.672Z,100.00
2022-10-22T02:50:55.331Z,100.00
2022-10-22T02:55:57.034Z,100.00
2022-10-22T03:00:58.784Z,100.00
2022-10-22T03:06:00.719Z,100.00
2022-10-22T03:11:02.394Z,100.00
2022-10-22T03:16:04.231Z,100.00
2022-10-22T03:21:29.872Z,100.00
2022-10-22T03:26:32.661Z,100.00
2022-10-22T03:31:34.387Z,100.00
2022-10-22T03:36:36.060Z,100.00
2022-10-22T03:41:37.814Z,100.00
2022-10-22T03:46:39.485Z,100.00
2022-10-22T03:51:41.167Z,100.00
2022-10-22T03:56:42.872Z,100.00
2022-10-22T04:01:44.587Z,100.00
2022-10-22T04:06:46.250Z,100.00
2022-10-22T04:11:47.960Z,100.00
2022-10-22T04:16:49.808Z,100.00
2022-10-22T04:21:51.469Z,100.00
2022-10-22T04:26:56.266Z,100.00
2022-10-22T04:31:57.939Z,100.00
2022-10-22T04:36:59.662Z,100.00
2022-10-22T04:42:01.330Z,100.00
2022-10-22T04:47:02.996Z,100.00
2022-10-22T04:52:04.836Z,100.00
2022-10-22T04:57:06.538Z,100.00
2022-10-22T05:02:08.410Z,100.00
2022-10-22T05:07:10.083Z,100.00
2022-10-22T05:12:11.801Z,100.00
2022-10-22T05:17:13.508Z,100.00
2022-10-22T05:22:15.333Z,100.00
2022-10-22T05:27:17.011Z,100.00
2022-10-22T05:32:18.660Z,100.00
2022-10-22T05:37:20.368Z,100.00
2022-10-22T05:42:22.139Z,100.00
2022-10-22T05:47:23.858Z,100.00
2022-10-22T05:52:26.638Z,100.00
2022-10-22T05:57:28.291Z,100.00
2022-10-22T06:02:29.991Z,100.00
2022-10-22T06:07:33.346Z,100.00
2022-10-22T06:12:35.339Z,100.00
2022-10-22T06:17:37.071Z,100.00
2022-10-22T06:22:39.287Z,100.00
2022-10-22T06:27:41.222Z,100.00
2022-10-22T06:32:43.089Z,100.00
2022-10-22T06:37:44.900Z,100.00
2022-10-22T06:42:46.569Z,100.00
2022-10-22T06:47:49.051Z,100.00
2022-10-22T06:52:50.811Z,100.00
2022-10-22T06:57:52.513Z,100.00
2022-10-22T07:02:57.699Z,100.00
2022-10-22T07:08:00.932Z,100.00
2022-10-22T07:13:02.598Z,100.00
2022-10-22T07:18:04.826Z,100.00
2022-10-22T07:23:06.529Z,100.00
2022-10-22T07:28:08.383Z,100.00
2022-10-22T07:33:11.330Z,100.00
2022-10-22T07:38:13.163Z,100.00
2022-10-22T07:43:14.820Z,100.00
2022-10-22T07:48:16.910Z,100.00
2022-10-22T07:53:18.732Z,100.00
2022-10-22T07:58:21.652Z,100.00
2022-10-22T08:03:23.447Z,100.00
2022-10-22T08:08:27.202Z,100.00
2022-10-22T08:13:31.688Z,100.00
2022-10-22T08:18:33.380Z,100.00
2022-10-22T08:23:35.397Z,100.00
2022-10-22T08:28:37.253Z,100.00
2022-10-22T08:33:39.982Z,100.00
2022-10-22T08:38:41.705Z,100.00
2022-10-22T08:44:07.850Z,100.00
2022-10-22T08:49:17.917Z,100.00
2022-10-22T08:54:39.440Z,100.00
2022-10-22T08:59:51.396Z,100.00
2022-10-22T09:05:18.388Z,100.00
2022-10-22T09:10:24.559Z,100.00
2022-10-22T09:15:27.089Z,100.00
2022-10-22T09:20:34.448Z,100.00
2022-10-22T09:25:37.623Z,100.00
2022-10-22T09:30:40.049Z,100.00
2022-10-22T09:35:57.294Z,100.00
2022-10-22T09:41:01.260Z,100.00
2022-10-22T09:46:05.971Z,99.07
2022-10-22T09:51:36.355Z,98.46
2022-10-22T09:56:42.179Z,98.43
2022-10-22T10:01:47.427Z,97.55
2022-10-22T10:06:55.465Z,86.84
2022-10-22T10:12:36.329Z,75.70
2022-10-22T10:18:27.668Z,78.96
2022-10-22T10:23:43.028Z,66.93
2022-10-22T10:28:55.424Z,69.61
2022-10-22T10:34:12.085Z,73.06
2022-10-22T10:39:30.652Z,72.53
2022-10-22T10:44:53.373Z,70.82
2022-10-22T10:50:18.675Z,74.17
2022-10-22T10:56:27.946Z,73.89
2022-10-22T11:02:03.637Z,73.86
2022-10-22T11:07:22.835Z,73.03
2022-10-22T11:12:39.126Z,74.45
2022-10-22T11:17:46.309Z,79.74
2022-10-22T11:23:19.371Z,82.58
2022-10-22T11:28:32.435Z,84.99
2022-10-22T11:33:45.001Z,85.45
2022-10-22T11:38:46.914Z,84.73
2022-10-22T11:43:59.058Z,85.02
2022-10-22T11:49:23.311Z,80.34
2022-10-22T11:54:34.222Z,80.54
2022-10-22T11:59:44.669Z,81.16
2022-10-22T12:04:47.471Z,80.17
2022-10-22T12:14:57.810Z,79.01
2022-10-22T12:20:07.536Z,80.17
2022-10-22T12:25:34.820Z,78.79
2022-10-22T12:30:37.825Z,69.23
2022-10-22T12:35:45.120Z,69.01
2022-10-22T12:40:48.965Z,71.27
2022-10-22T12:45:51.838Z,68.10
2022-10-22T12:50:58.095Z,63.64
2022-10-22T12:56:02.686Z,66.57
2022-10-22T13:01:04.720Z,70.04
2022-10-22T13:06:18.422Z,69.15
2022-10-22T13:11:20.687Z,69.37
2022-10-22T13:16:25.862Z,68.13
2022-10-22T13:21:38.713Z,65.33
2022-10-22T13:26:40.405Z,64.14
2022-10-22T13:31:47.334Z,65.90
2022-10-22T13:36:49.178Z,67.96
2022-10-22T13:41:51.484Z,64.32
2022-10-22T13:46:53.180Z,66.19
2022-10-22T13:51:54.944Z,70.21
2022-10-22T13:56:56.644Z,71.73
2022-10-22T14:01:58.327Z,69.63
2022-10-22T14:07:03.703Z,70.25
2022-10-22T14:12:13.835Z,71.55
2022-10-22T14:17:16.977Z,72.78
2022-10-22T14:22:19.684Z,70.94
2022-10-22T14:27:21.364Z,70.35
2022-10-22T14:32:23.180Z,72.55
2022-10-22T14:37:25.362Z,73.68
2022-10-22T14:42:28.520Z,74.52
2022-10-22T14:47:30.210Z,75.04
2022-10-22T14:52:31.870Z,75.18
2022-10-22T14:57:33.540Z,75.61
2022-10-22T15:02:35.325Z,76.00
2022-10-22T15:07:37.879Z,77.79
2022-10-22T15:12:39.778Z,77.57
2022-10-22T15:17:41.628Z,79.30
2022-10-22T15:22:43.698Z,79.65
2022-10-22T15:27:50.330Z,81.17
2022-10-22T15:32:53.474Z,82.32
2022-10-22T15:37:55.144Z,83.10
2022-10-22T15:42:56.809Z,84.53
2022-10-22T15:47:58.788Z,85.79
2022-10-22T15:53:00.518Z,88.09
2022-10-22T15:58:04.171Z,91.12
2022-10-22T16:03:06.236Z,98.26
2022-10-22T16:08:07.900Z,98.45
2022-10-22T16:13:09.566Z,100.00
2022-10-22T16:18:11.230Z,100.00
2022-10-22T16:23:13.930Z,100.00
2022-10-22T16:28:15.936Z,100.00
2022-10-22T16:33:17.602Z,100.00
2022-10-22T16:38:19.261Z,100.00
2022-10-22T16:43:20.940Z,100.00
2022-10-22T16:48:22.601Z,100.00
2022-10-22T16:53:24.331Z,100.00
2022-10-22T16:58:26.159Z,100.00
2022-10-22T17:03:28.453Z,100.00
2022-10-22T17:08:37.566Z,100.00
2022-10-22T17:13:40.981Z,100.00
2022-10-22T17:23:56.565Z,100.00
2022-10-22T17:28:58.357Z,100.00
2022-10-22T17:34:00.268Z,100.00
2022-10-22T17:39:05.611Z,100.00
2022-10-22T17:44:09.352Z,100.00
2022-10-22T17:49:20.098Z,100.00
2022-10-22T17:54:21.838Z,100.00
2022-10-22T17:59:23.513Z,100.00
2022-10-22T18:04:25.222Z,100.00
2022-10-22T18:09:27.052Z,100.00
2022-10-22T18:14:28.723Z,100.00
2022-10-22T18:19:30.469Z,100.00
2022-10-22T18:24:32.142Z,100.00
2022-10-22T18:29:33.807Z,100.00
2022-10-22T18:34:37.404Z,100.00
2022-10-22T18:39:39.112Z,100.00
2022-10-22T18:44:40.805Z,100.00
2022-10-22T18:49:42.465Z,100.00
2022-10-22T18:54:44.182Z,99.61
2022-10-22T18:59:45.838Z,98.54
2022-10-22T19:04:47.552Z,98.91
2022-10-22T19:09:49.240Z,99.73
2022-10-22T19:14:51.853Z,98.11
2022-10-22T19:19:53.562Z,98.21
2022-10-22T19:24:55.295Z,97.43
2022-10-22T19:29:57.082Z,96.35
2022-10-22T19:34:59.069Z,95.87
2022-10-22T19:40:00.819Z,95.01
2022-10-22T19:45:03.298Z,93.64
2022-10-22T19:50:05.298Z,93.22
2022-10-22T19:55:07.199Z,93.38
2022-10-22T20:00:09.395Z,92.83
2022-10-22T20:05:11.566Z,92.87
2022-10-22T20:10:13.291Z,92.06
2022-10-22T20:15:17.010Z,91.42
2022-10-22T20:20:20.099Z,91.94
2022-10-22T20:25:23.629Z,92.76
2022-10-22T20:30:25.288Z,93.77
2022-10-22T20:35:27.009Z,93.65
2022-10-22T20:40:30.765Z,94.74
2022-10-22T20:45:32.453Z,95.30
2022-10-22T20:50:34.144Z,96.83
2022-10-22T20:55:35.859Z,97.67
2022-10-22T21:00:39.442Z,97.04
2022-10-22T21:05:41.481Z,97.25
2022-10-22T21:10:46.392Z,99.98
2022-10-22T21:15:48.155Z,100.00
2022-10-22T21:20:49.942Z,100.00
2022-10-22T21:25:56.385Z,100.00
2022-10-22T21:30:58.204Z,100.00
2022-10-22T21:35:59.882Z,100.00
2022-10-22T21:41:09.944Z,100.00
2022-10-22T21:46:15.545Z,100.00
2022-10-22T21:51:19.153Z,100.00
2022-10-22T21:56:32.362Z,100.00
2022-10-22T22:01:34.557Z,100.00
2022-10-22T22:06:36.415Z,100.00
2022-10-22T22:11:38.125Z,100.00
2022-10-22T22:16:40.366Z,100.00
2022-10-22T22:21:42.239Z,100.00
2022-10-22T22:26:43.944Z,100.00
2022-10-22T22:31:46.058Z,100.00
2022-10-22T22:36:49.519Z,100.00
2022-10-22T22:41:51.801Z,100.00
2022-10-22T22:46:53.466Z,100.00
2022-10-22T22:51:55.122Z,100.00
2022-10-22T22:56:56.831Z,100.00
2022-10-22T23:01:58.580Z,100.00
2022-10-22T23:07:00.269Z,100.00
2022-10-22T23:12:01.925Z,100.00
2022-10-22T23:17:03.683Z,100.00
2022-10-22T23:22:05.402Z,100.00
2022-10-22T23:27:07.074Z,100.00
2022-10-22T23:32:14.224Z,100.00
2022-10-22T23:37:15.920Z,100.00
2022-10-22T23:42:17.604Z,100.00
2022-10-22T23:47:19.420Z,100.00
2022-10-22T23:52:21.121Z,100.00
2022-10-22T23:57:23.142Z,100.00
